Wattsburg, Pennsylvania
Current Conditions -  °F | °C
As of 9:51 AM on Friday 24 Oct 2014 (Local Time) from KERI Reporting Station
Scattered Clouds Scattered Clouds  
Wind Chill: 51°   Ceiling: Unl
Heat Index: 51°   Visibility: 10mi
Dew Point: 44°   Wind: 5mph
Humidity: 77%   Direction: 210°SSW
Pressure: 30.07"   Gusts: NA
Location:  42°N, 79.81°W
Report Text: KERI 241351Z 21004KT 10SM SCT027 11/07 A3007 RMK AO2 SLP185 T01060067
Loading
Personal Weather Stations






























Interactive Weather Map
Tropical Storm Tracking
New forecast layout! Learn more

10-Day Weather Forecast

Advertisements
Track Severe Weather on mobile